Decoded Metar for CYKJ (KEY LAKE in SK, CANADA) (IATA:YKJ) | Meteo·Mobile Aviation Weather
aviador You're here:

CYKJ Decoded Metar

KEY LAKE in SK, CANADA
Report Time2019-04-23 16:00:00
UTC Time2019-04-23 16:43:53
Flight Rules vfr VFR
Wind280° at 10 Gusting to 17 kt
W.Decomp.*RWY 21: 5.0 kt HW 8.7 kt RCW
Visibility9999 m
Phenomena:N/A
Clouds:N/A
Expected CloudBase > 3,200 ft AGL from Temp-Dew spread
CeilingNone
Temp11°C (ISA -1)
Dew Point03°C (58% RH)
AAT5.9°C
QNH997 hPa
Density Alt2,244 ft
Elevation1,670 ft
Report Wrong Elevation
Raw Report
CYKJ 231600Z AUTO 28010G17KT 9SM CLR 11/03 A2944 RMK SLP984
DENSITY ALT 2100FT=

Extra information for CYKJ:More info

Metar Taf Metar & Taf Last 4 Metars F.Rules Stats Wind Profile Meteogram Temp Stats Airport Information Weather charts Add Link Nearby VenuesMetar ALERT Operation Metar Decoded Social comments